Airfield :
LOGIN :

Register | Disclaimer

   EN    FR    IT 

 










Legend :    VFR   Marginal VFR   IFR   Intensive IFR   Very Intensive IFR
Visi :
Ceiling :
>= 8 km
>= 3000ft
5 to 8 km
1000 to 3000 ft
1500m to 5 km
500 to 1000 ft
800 to 1500m
200 to 500 ft
< 800m
< 200 ft
Symbols :   Thunderstorms  Fog  Heavy snow  Heavy precipitations  Wind > 20 kt
SIGMETs :     Misc.  Thunderstorms  Icing  Turbulence  Mountain Waves  Volcanic Ashes







- Airport Elevation : 247 ft
- IATA code : BLL


EKBI - Billund

CURRENT METAR :
  • 201450Z AUTO 06018KT 9999NDV BKN021/// 05/02 Q1021

EXPIRED METARs :
  • 201420Z AUTO 07016KT 9999NDV OVC019/// 05/02 Q1021
  • 201350Z AUTO 07016KT 9999NDV OVC017/// 05/02 Q1021
  • 201320Z AUTO 07018KT 9999NDV OVC018/// 05/02 Q1022
  • 201250Z AUTO 07018KT 9999NDV OVC022/// 05/02 Q1022
  • 201220Z AUTO 07019G29KT 9999NDV OVC018/// 05/02 Q1022

TAF TAF EKBI
Valid from the 20 at 12:00 until the 21 at 12:00 UTC


201105Z 2012/2112 07012KT 9999 BKN020
TEMPO 2012/2021 08018G28KT BKN012
TEMPO 2021/2112 BKN012
No reported NOTAMs for that airfield.



MET'MAP, your aeronautical weather chart ! - Copyright ORBIFLY December 2007 - Disclaimer

ORBIFLY MET'MAP TEAM :

Programming & Development : Alexandra Zaïnal
Concept & Development : Baudouin d'Aumeries
Co-Development & Prog : Marc-Olivier Méhu
Technical & hardware support : Manuel Goepfert

Contact : metmap@orbifly.com




SOURCES & CREDITS :

   NOAA